Stoney Fork, KY (40988)

5:22 PM EDT on October 25, 2014 (GMT -0400)
Harlan | Change Station
CLOSE
Current Station
Airport
Location: Harlan,
Elevation: 1552 ft
Nearby Weather Stations

Elev 1552 ft 36.86 °N, 83.36 °W | Updated 7 minutes ago

Partly Cloudy
Partly Cloudy
68 °F
Feels Like 68 °F
N
4
Wind Variable Wind from NW

Today
High -- | Low -- °F
--% Chance of Precip.
Yesterday
High -- | Low -- °F
Precip. -- in
7:51 AM 6:44 PM
Waxing Crescent, 4% visible
Pressure 30.01 in
Visibility 10.0 miles
Clouds Scattered Clouds 2900 ft
Scattered Clouds 4400 ft
Scattered Clouds 5000 ft
Dew Point 48 °F
Humidity 49%
Rainfall 0.00 in
Snow Depth Not available.
UV 1 out of 12
Pollen 1.20 out of 12
Air Quality Not available.
Flu Activity Sporadic
METAR KI35 252115Z AUTO 31003KT 10SM SCT029 SCT044 SCT050 20/09 A3001 RMK AO1

More Conditions Fewer Conditions

Pressure 30.01 in
Visibility 10.0 miles
Clouds Scattered Clouds 2900 ft
Scattered Clouds 4400 ft
Scattered Clouds 5000 ft
Dew Point 48 °F
Humidity 49%
Rainfall 0.00 in
Snow Depth Not available.
UV 1 out of 12
Pollen 1.20 out of 12
Air Quality Not available.
Flu Activity Sporadic
METAR KI35 252115Z AUTO 31003KT 10SM SCT029 SCT044 SCT050 20/09 A3001 RMK AO1

More Conditions Fewer Conditions

10-Day Weather Forecast

Almanac

Astronomy

Oct. 25, 2014 Rise Set
Actual Time 7:51 AM EDT 6:44 PM EDT
Civil Twilight 7:24 AM EDT 7:11 PM EDT
Nautical Twilight 6:54 AM EDT 7:41 PM EDT
Astronomical Twilight 6:24 AM EDT 8:11 PM EDT
Moon 9:27 AM EDT 8:09 PM EDT
Length of Visible Light 11h 46m
Length of Day
10h 53m
Tomorrow will be 2m 10s shorter.
Waxing Crescent, 4% of the Moon is Illuminated
Today
Waxing Crescent
Oct 30
First Quarter
Nov 6
Full
Nov 14
Last Quarter
Nov 22
New

Today's Extremes

State Highs State Lows

Community

WunderPhotos

Upload Photos

1,765,001 photos uploaded!

Nearby

Snow Depth

Station Depth Elevation
No new snow has been reported.

Earthquake Activity

City Distance Mag. Time & Date
No recent earthquake activity has been reported nearby.
Minimum magnitude displayed is 2.5.

Coastal Water Temperatures

Place Temperature
No Stations Reporting

Nearby Weather Stations